createdAt,value
2018-04-30T00:00:55.675Z,25.33
2018-04-30T00:03:25.287Z,26.03
2018-04-30T00:05:54.814Z,24.63
2018-04-30T00:08:36.402Z,27.37
2018-04-30T00:11:05.819Z,24.07
2018-04-30T00:13:34.686Z,27.73
2018-04-30T00:16:03.925Z,27.83
2018-04-30T00:18:32.815Z,22.57
2018-04-30T00:21:02.485Z,25.33
2018-04-30T00:23:43.797Z,28.23
2018-04-30T00:26:12.666Z,25.43
2018-04-30T00:28:42.643Z,26.93
2018-04-30T00:31:11.523Z,26.63
2018-04-30T00:33:39.978Z,26.97
2018-04-30T00:36:09.280Z,26.37
2018-04-30T00:38:41.151Z,25.63
2018-04-30T00:41:10.663Z,26.40
2018-04-30T00:43:43.467Z,23.23
2018-04-30T00:46:13.742Z,22.47
2018-04-30T00:48:55.117Z,24.40
2018-04-30T00:51:23.935Z,23.20
2018-04-30T00:53:53.457Z,23.83
2018-04-30T00:56:22.697Z,23.13
2018-04-30T00:58:51.725Z,20.10
2018-04-30T01:01:21.323Z,21.80
2018-04-30T01:03:54.137Z,25.20
2018-04-30T01:06:22.900Z,23.20
2018-04-30T01:08:56.322Z,26.80
2018-04-30T01:11:25.174Z,24.57
2018-04-30T01:14:07.083Z,25.00
2018-04-30T01:16:36.319Z,29.40
2018-04-30T01:19:05.618Z,26.23
2018-04-30T01:21:35.162Z,28.13
2018-04-30T01:24:05.727Z,25.30
2018-04-30T01:26:34.534Z,26.03
2018-04-30T01:29:15.427Z,27.10
2018-04-30T01:31:44.370Z,27.30
2018-04-30T01:34:13.984Z,27.33
2018-04-30T01:36:42.851Z,30.57
2018-04-30T01:39:12.343Z,28.73
2018-04-30T01:41:40.814Z,26.07
2018-04-30T01:44:14.789Z,27.37
2018-04-30T01:46:43.554Z,27.77
2018-04-30T01:49:17.058Z,26.60
2018-04-30T01:51:45.815Z,27.20
2018-04-30T01:54:19.220Z,29.40
2018-04-30T01:56:48.803Z,25.73
2018-04-30T01:59:20.351Z,22.30
2018-04-30T02:01:48.839Z,26.87
2018-04-30T02:04:21.595Z,26.50
2018-04-30T02:06:51.211Z,26.97
2018-04-30T02:09:24.449Z,24.70
2018-04-30T02:11:52.990Z,25.10
2018-04-30T02:14:26.755Z,23.43
2018-04-30T02:16:56.284Z,25.87
2018-04-30T02:19:30.064Z,24.53
2018-04-30T02:21:58.544Z,22.80
2018-04-30T02:24:32.050Z,26.70
2018-04-30T02:27:01.182Z,24.97
2018-04-30T02:29:34.621Z,25.97
2018-04-30T02:32:03.112Z,24.67
2018-04-30T02:34:37.223Z,24.63
2018-04-30T02:37:06.219Z,23.03
2018-04-30T02:39:43.067Z,25.27
2018-04-30T02:42:13.319Z,25.50
2018-04-30T02:44:42.016Z,22.97
2018-04-30T02:47:11.246Z,31.20
2018-04-30T02:49:44.169Z,25.83
2018-04-30T02:52:13.421Z,33.30
2018-04-30T02:54:46.238Z,26.47
2018-04-30T02:57:16.207Z,32.50
2018-04-30T02:59:48.790Z,30.07
2018-04-30T03:02:18.691Z,28.00
2018-04-30T03:04:54.334Z,30.77
2018-04-30T03:07:23.950Z,27.97
2018-04-30T03:09:54.428Z,27.33
2018-04-30T03:12:23.673Z,25.77
2018-04-30T03:14:57.333Z,32.37
2018-04-30T03:17:26.201Z,24.80
2018-04-30T03:20:00.391Z,23.43
2018-04-30T03:22:28.863Z,22.97
2018-04-30T03:25:01.747Z,20.40
2018-04-30T03:27:31.522Z,27.17
2018-04-30T03:30:05.301Z,23.63
2018-04-30T03:32:34.177Z,23.57
2018-04-30T03:35:08.143Z,20.47
2018-04-30T03:37:36.616Z,23.83
2018-04-30T03:40:11.081Z,21.53
2018-04-30T03:42:39.556Z,23.47
2018-04-30T03:45:21.910Z,20.70
2018-04-30T03:47:51.414Z,21.17
2018-04-30T03:50:21.041Z,19.03
2018-04-30T03:52:49.532Z,17.60
2018-04-30T03:55:18.563Z,12.53
2018-04-30T03:57:47.058Z,6.43
2018-04-30T04:00:28.441Z,5.10
2018-04-30T04:03:08.315Z,2.60
2018-04-30T04:06:45.213Z,4.80
2018-04-30T04:09:13.946Z,1.33
2018-04-30T04:11:42.423Z,2.23
2018-04-30T04:14:11.296Z,1.63
2018-04-30T04:16:40.680Z,1.60
2018-04-30T04:19:09.133Z,1.73
2018-04-30T04:21:38.384Z,1.20
2018-04-30T04:24:07.649Z,1.07
2018-04-30T04:26:36.112Z,1.10
2018-04-30T04:29:05.604Z,1.53
2018-04-30T04:31:35.103Z,2.47
2018-04-30T04:34:05.170Z,1.33
2018-04-30T04:36:36.651Z,2.47
2018-04-30T04:39:06.650Z,1.77
2018-04-30T04:41:37.341Z,1.87
2018-04-30T04:44:07.269Z,1.47
2018-04-30T04:46:40.531Z,1.30
2018-04-30T04:49:09.279Z,1.60
2018-04-30T04:51:41.906Z,2.57
2018-04-30T04:54:11.665Z,1.30
2018-04-30T04:56:45.711Z,1.37
2018-04-30T04:59:14.831Z,1.70
2018-04-30T05:01:48.615Z,1.30
2018-04-30T05:04:17.075Z,2.33
2018-04-30T05:06:59.270Z,1.47
2018-04-30T05:09:27.749Z,1.50
2018-04-30T05:11:57.379Z,1.83
2018-04-30T05:14:27.404Z,1.70
2018-04-30T05:16:56.261Z,2.20
2018-04-30T05:19:24.719Z,2.77
2018-04-30T05:22:07.805Z,1.77
2018-04-30T05:24:37.800Z,1.70
2018-04-30T05:27:06.300Z,2.13
2018-04-30T05:29:36.038Z,2.57
2018-04-30T05:32:04.528Z,2.80
2018-04-30T05:34:34.039Z,2.00
2018-04-30T05:37:06.474Z,2.93
2018-04-30T05:39:34.991Z,2.20
2018-04-30T05:42:11.695Z,1.73
2018-04-30T05:44:40.155Z,2.73
2018-04-30T05:47:12.266Z,1.50
2018-04-30T05:49:41.511Z,2.10
2018-04-30T05:52:13.824Z,2.13
2018-04-30T05:54:43.336Z,2.20
2018-04-30T05:57:24.299Z,1.50
2018-04-30T05:59:53.019Z,2.63
2018-04-30T06:02:22.607Z,3.07
2018-04-30T06:04:51.449Z,1.70
2018-04-30T06:07:20.812Z,1.80
2018-04-30T06:09:49.642Z,1.60
2018-04-30T06:12:22.647Z,1.90
2018-04-30T06:14:51.539Z,1.37
2018-04-30T06:17:33.658Z,1.50
2018-04-30T06:20:02.333Z,1.37
2018-04-30T06:22:31.812Z,1.47
2018-04-30T06:25:01.388Z,2.80
2018-04-30T06:27:31.251Z,1.53
2018-04-30T06:29:59.714Z,2.70
2018-04-30T06:32:32.636Z,2.03
2018-04-30T06:35:01.486Z,1.53
2018-04-30T06:37:42.423Z,2.50
2018-04-30T06:40:11.627Z,2.13
2018-04-30T06:42:40.128Z,1.50
2018-04-30T06:45:09.843Z,2.40
2018-04-30T06:47:39.761Z,1.60
2018-04-30T06:50:09.448Z,2.17
2018-04-30T06:52:40.998Z,2.23
2018-04-30T06:55:10.678Z,2.20
2018-04-30T06:57:52.882Z,1.60
2018-04-30T07:00:22.735Z,3.03
2018-04-30T07:02:51.534Z,3.33
2018-04-30T07:05:21.035Z,2.50
2018-04-30T07:07:50.627Z,2.77
2018-04-30T07:10:19.134Z,1.67
2018-04-30T07:13:00.107Z,1.60
2018-04-30T07:15:30.016Z,1.33
2018-04-30T07:17:59.538Z,1.60
2018-04-30T07:20:28.785Z,2.70
2018-04-30T07:22:58.629Z,1.77
2018-04-30T07:25:28.111Z,1.90
2018-04-30T07:27:59.090Z,1.73
2018-04-30T07:30:29.147Z,1.27
2018-04-30T07:33:01.724Z,1.70
2018-04-30T07:35:31.344Z,1.63
2018-04-30T07:38:12.813Z,1.10
2018-04-30T07:40:42.050Z,1.47
2018-04-30T07:43:11.567Z,2.53
2018-04-30T07:45:40.052Z,1.40
2018-04-30T07:48:12.473Z,1.37
2018-04-30T07:50:41.407Z,1.23
2018-04-30T07:53:12.705Z,0.77
2018-04-30T07:55:42.215Z,1.07
2018-04-30T07:58:23.894Z,0.93
2018-04-30T08:00:53.718Z,1.60
2018-04-30T08:03:22.600Z,1.20
2018-04-30T08:05:51.515Z,1.13
2018-04-30T08:08:20.079Z,2.30
2018-04-30T08:10:49.346Z,1.93
2018-04-30T08:13:21.189Z,1.00
2018-04-30T08:15:51.027Z,2.77
2018-04-30T08:18:24.079Z,2.13
2018-04-30T08:20:52.617Z,1.13
2018-04-30T08:23:25.675Z,1.40
2018-04-30T08:25:55.174Z,1.13
2018-04-30T08:28:28.023Z,2.30
2018-04-30T08:30:56.933Z,1.10
2018-04-30T08:33:39.069Z,1.83
2018-04-30T08:36:07.877Z,1.20
2018-04-30T08:38:36.362Z,2.07
2018-04-30T08:41:06.380Z,1.40
2018-04-30T08:43:35.714Z,0.80
2018-04-30T08:46:05.225Z,1.20
2018-04-30T08:48:37.453Z,1.20
2018-04-30T08:51:06.338Z,1.20
2018-04-30T08:53:39.568Z,1.17
2018-04-30T08:56:10.038Z,0.90
2018-04-30T08:58:42.347Z,1.30
2018-04-30T09:01:11.648Z,3.77
2018-04-30T09:03:54.275Z,0.93
2018-04-30T09:06:22.770Z,2.80
2018-04-30T09:08:51.567Z,1.00
2018-04-30T09:11:20.059Z,2.40
2018-04-30T09:13:50.057Z,1.13
2018-04-30T09:16:18.829Z,1.00
2018-04-30T09:18:51.633Z,3.07
2018-04-30T09:21:20.179Z,2.57
2018-04-30T09:24:02.072Z,14.43
2018-04-30T09:26:31.927Z,16.67
2018-04-30T09:29:01.609Z,6.93
2018-04-30T09:31:30.114Z,4.30
2018-04-30T09:47:11.355Z,2.23
2018-04-30T09:49:40.930Z,3.27
2018-04-30T09:52:11.215Z,2.03
2018-04-30T09:54:39.724Z,5.80
2018-04-30T09:57:13.441Z,5.23
2018-04-30T09:59:43.223Z,2.27
2018-04-30T10:02:24.281Z,7.53
2018-04-30T10:04:55.338Z,8.60
2018-04-30T10:07:23.844Z,2.13
2018-04-30T10:09:53.380Z,2.50
2018-04-30T10:12:22.244Z,2.60
2018-04-30T10:14:51.751Z,1.43
2018-04-30T10:17:21.309Z,1.50
2018-04-30T10:19:50.118Z,1.40
2018-04-30T10:22:23.689Z,2.07
2018-04-30T10:24:52.162Z,1.63
2018-04-30T10:27:33.780Z,1.47
2018-04-30T10:30:03.861Z,2.93
2018-04-30T10:32:32.671Z,3.67
2018-04-30T10:35:01.586Z,2.73
2018-04-30T10:37:31.671Z,2.67
2018-04-30T10:40:00.451Z,1.43
2018-04-30T10:42:33.258Z,1.90
2018-04-30T10:45:01.801Z,1.13
2018-04-30T10:47:35.323Z,2.00
2018-04-30T10:50:05.324Z,2.00
2018-04-30T10:52:39.121Z,1.80
2018-04-30T10:55:07.870Z,1.60
2018-04-30T10:57:40.551Z,5.90
2018-04-30T11:00:10.318Z,3.03
2018-04-30T11:02:42.807Z,3.97
2018-04-30T11:05:13.232Z,3.33
2018-04-30T11:07:45.515Z,3.30
2018-04-30T11:10:15.493Z,2.90
2018-04-30T11:12:47.174Z,2.20
2018-04-30T11:15:16.448Z,1.17
2018-04-30T11:17:58.290Z,3.97
2018-04-30T11:20:27.522Z,3.90
2018-04-30T11:22:56.674Z,1.47
2018-04-30T11:25:26.295Z,1.73
2018-04-30T11:27:55.799Z,1.50
2018-04-30T11:30:24.269Z,1.70
2018-04-30T11:32:56.845Z,1.93
2018-04-30T11:35:26.622Z,1.90
2018-04-30T11:37:59.376Z,3.17
2018-04-30T11:40:27.875Z,2.77
2018-04-30T11:43:03.320Z,1.93
2018-04-30T11:45:31.813Z,2.63
2018-04-30T11:48:13.878Z,2.87
2018-04-30T11:50:43.178Z,2.50
2018-04-30T11:53:11.662Z,2.17
2018-04-30T11:55:41.512Z,1.30
2018-04-30T11:58:12.808Z,2.50
2018-04-30T12:00:42.917Z,2.03
2018-04-30T12:03:14.626Z,3.43
2018-04-30T12:05:43.379Z,3.00
2018-04-30T12:08:15.701Z,1.57
2018-04-30T12:10:44.187Z,2.20
2018-04-30T12:13:18.167Z,1.03
2018-04-30T12:15:47.844Z,1.77
2018-04-30T12:18:20.109Z,2.30
2018-04-30T12:20:49.406Z,2.17
2018-04-30T12:23:23.348Z,1.83
2018-04-30T12:25:51.904Z,2.17
2018-04-30T12:28:24.335Z,0.80
2018-04-30T12:30:52.823Z,1.00
2018-04-30T12:33:34.676Z,0.90
2018-04-30T12:36:03.496Z,0.77
2018-04-30T12:38:31.965Z,0.50
2018-04-30T12:41:01.570Z,1.10
2018-04-30T12:43:31.461Z,2.77
2018-04-30T12:46:00.947Z,1.97
2018-04-30T12:48:32.162Z,1.00
2018-04-30T12:51:02.035Z,1.00
2018-04-30T12:53:36.874Z,0.70
2018-04-30T12:56:06.531Z,1.87
2018-04-30T12:58:39.910Z,0.60
2018-04-30T13:01:09.890Z,1.03
2018-04-30T13:03:42.625Z,0.97
2018-04-30T13:06:11.832Z,1.80
2018-04-30T13:08:45.350Z,0.80
2018-04-30T13:11:13.832Z,1.00
2018-04-30T13:13:47.328Z,0.70
2018-04-30T13:16:16.583Z,0.80
2018-04-30T13:18:50.689Z,1.90
2018-04-30T13:21:19.203Z,0.57
2018-04-30T13:23:52.665Z,3.40
2018-04-30T13:26:21.571Z,1.80
2018-04-30T13:28:55.524Z,0.40
2018-04-30T13:31:23.983Z,0.80
2018-04-30T13:33:57.439Z,0.50
2018-04-30T13:36:26.926Z,1.27
2018-04-30T13:39:07.988Z,25.90
2018-04-30T13:41:38.264Z,23.17
2018-04-30T13:44:07.549Z,15.33
2018-04-30T13:46:37.342Z,15.40
2018-04-30T13:49:07.424Z,6.23
2018-04-30T13:51:37.071Z,11.63
2018-04-30T13:54:09.139Z,4.07
2018-04-30T13:56:39.129Z,3.37
2018-04-30T13:59:11.505Z,4.90
2018-04-30T14:01:40.079Z,6.03
2018-04-30T14:04:21.326Z,2.63
2018-04-30T14:06:50.837Z,3.37
2018-04-30T14:09:21.500Z,4.73
2018-04-30T14:11:49.998Z,3.00
2018-04-30T14:14:18.487Z,4.87
2018-04-30T14:16:47.389Z,5.23
2018-04-30T14:19:29.109Z,3.47
2018-04-30T14:21:58.003Z,5.33
2018-04-30T14:24:26.502Z,4.10
2018-04-30T14:26:55.418Z,5.40
2018-04-30T14:29:25.538Z,2.17
2018-04-30T14:31:54.026Z,5.57
2018-04-30T14:34:27.609Z,11.87
2018-04-30T14:36:57.513Z,10.27
2018-04-30T14:39:29.159Z,12.13
2018-04-30T14:41:59.163Z,4.87
2018-04-30T14:44:30.259Z,5.30
2018-04-30T14:46:59.083Z,3.87
2018-04-30T14:49:41.686Z,1.97
2018-04-30T14:52:11.533Z,1.13
2018-04-30T14:54:43.499Z,2.60
2018-04-30T14:57:14.442Z,3.30
2018-04-30T14:59:44.570Z,5.47
2018-04-30T15:02:13.157Z,3.40
2018-04-30T15:04:41.679Z,1.20
2018-04-30T15:07:11.213Z,2.10
2018-04-30T15:09:44.174Z,2.40
2018-04-30T15:12:13.755Z,0.60
2018-04-30T15:14:54.875Z,3.40
2018-04-30T15:17:24.829Z,1.30
2018-04-30T15:19:54.353Z,3.70
2018-04-30T15:22:23.860Z,1.37
2018-04-30T15:24:52.695Z,0.63
2018-04-30T15:27:22.298Z,0.97
2018-04-30T15:29:55.093Z,3.37
2018-04-30T15:32:23.557Z,0.73
2018-04-30T15:35:05.570Z,5.37
2018-04-30T15:37:35.323Z,0.60
2018-04-30T15:40:03.984Z,1.57
2018-04-30T15:42:32.456Z,3.13
2018-04-30T15:45:03.147Z,0.63
2018-04-30T15:47:32.522Z,1.90
2018-04-30T15:50:06.215Z,1.33
2018-04-30T15:52:35.206Z,1.23
2018-04-30T15:55:16.570Z,1.70
2018-04-30T15:57:45.462Z,0.80
2018-04-30T16:00:14.004Z,0.70
2018-04-30T16:02:43.370Z,2.37
2018-04-30T16:05:33.952Z,0.70
2018-04-30T16:08:02.477Z,0.50
2018-04-30T16:10:32.042Z,2.27
2018-04-30T16:13:01.019Z,1.27
2018-04-30T16:15:30.511Z,0.40
2018-04-30T16:17:59.021Z,0.73
2018-04-30T16:20:27.591Z,1.37
2018-04-30T16:22:57.487Z,2.10
2018-04-30T16:25:27.028Z,1.70
2018-04-30T16:27:56.561Z,0.83
2018-04-30T16:30:26.265Z,1.03
2018-04-30T16:32:55.163Z,1.17
2018-04-30T16:35:27.664Z,1.40
2018-04-30T16:37:57.551Z,1.80
2018-04-30T16:40:30.602Z,0.60
2018-04-30T16:43:00.095Z,1.70
2018-04-30T16:45:32.881Z,1.10
2018-04-30T16:48:01.786Z,0.87
2018-04-30T16:50:35.461Z,0.47
2018-04-30T16:53:04.338Z,1.13
2018-04-30T16:55:45.532Z,0.77
2018-04-30T16:58:14.304Z,1.13
2018-04-30T17:00:42.835Z,0.50
2018-04-30T17:03:11.753Z,1.23
2018-04-30T17:05:41.609Z,1.23
2018-04-30T17:08:10.079Z,1.47
2018-04-30T17:10:52.324Z,2.00
2018-04-30T17:13:22.701Z,1.30
2018-04-30T17:15:51.947Z,6.63
2018-04-30T17:18:21.955Z,1.30
2018-04-30T17:20:51.947Z,2.10
2018-04-30T17:23:20.662Z,1.20
2018-04-30T17:25:49.953Z,2.00
2018-04-30T17:28:19.585Z,0.90
2018-04-30T17:31:00.735Z,0.40
2018-04-30T17:33:29.576Z,1.50
2018-04-30T17:35:59.223Z,1.13
2018-04-30T17:38:28.532Z,0.30
2018-04-30T17:40:59.829Z,0.33
2018-04-30T17:43:29.321Z,0.57
2018-04-30T17:46:03.950Z,0.57
2018-04-30T17:48:33.439Z,0.50
2018-04-30T17:51:06.326Z,0.40
2018-04-30T17:53:35.861Z,1.80
2018-04-30T17:56:07.470Z,2.07
2018-04-30T17:58:37.464Z,7.83
2018-04-30T18:01:11.786Z,1.13
2018-04-30T18:03:41.906Z,2.40
2018-04-30T18:06:13.088Z,1.83
2018-04-30T18:08:42.347Z,8.70
2018-04-30T18:11:15.861Z,2.90
2018-04-30T18:13:45.417Z,0.80
2018-04-30T18:16:18.025Z,1.07
2018-04-30T18:18:46.554Z,2.47
2018-04-30T18:21:27.854Z,0.50
2018-04-30T18:23:58.134Z,1.90
2018-04-30T18:26:26.636Z,1.63
2018-04-30T18:28:56.150Z,2.40
2018-04-30T18:31:25.919Z,1.47
2018-04-30T18:33:54.379Z,3.20
2018-04-30T18:36:27.032Z,4.43
2018-04-30T18:38:57.484Z,1.10
2018-04-30T18:41:29.746Z,1.27
2018-04-30T18:43:58.369Z,2.33
2018-04-30T18:46:30.763Z,1.20
2018-04-30T18:49:00.285Z,2.73
2018-04-30T18:51:42.282Z,2.27
2018-04-30T18:54:12.713Z,2.57
2018-04-30T18:56:44.037Z,2.67
2018-04-30T18:59:13.531Z,2.57
2018-04-30T19:01:42.754Z,2.90
2018-04-30T19:04:12.336Z,2.33
2018-04-30T19:06:41.854Z,3.17
2018-04-30T19:09:10.629Z,2.37
2018-04-30T19:11:42.761Z,2.77
2018-04-30T19:14:12.362Z,1.80
2018-04-30T19:16:45.146Z,4.70
2018-04-30T19:19:13.638Z,3.57
2018-04-30T19:21:50.419Z,3.07
2018-04-30T19:24:19.196Z,2.03
2018-04-30T19:26:50.720Z,4.80
2018-04-30T19:29:20.577Z,2.83
2018-04-30T19:31:53.119Z,2.33
2018-04-30T19:34:22.077Z,1.13
2018-04-30T19:36:55.449Z,1.40
2018-04-30T19:39:25.215Z,3.33
2018-04-30T19:41:58.321Z,2.20
2018-04-30T19:44:26.810Z,0.93
2018-04-30T19:47:00.511Z,4.10
2018-04-30T19:49:30.758Z,2.83
2018-04-30T19:52:03.267Z,3.07
2018-04-30T19:54:32.491Z,2.27
2018-04-30T19:57:07.166Z,9.23
2018-04-30T19:59:37.053Z,2.90
2018-04-30T20:02:10.332Z,2.60
2018-04-30T20:04:38.976Z,4.87
2018-04-30T20:07:11.221Z,4.83
2018-04-30T20:09:41.191Z,1.80
2018-04-30T20:12:13.380Z,2.80
2018-04-30T20:14:42.135Z,3.77
2018-04-30T20:17:14.759Z,3.10
2018-04-30T20:19:43.244Z,2.00
2018-04-30T20:22:16.012Z,4.00
2018-04-30T20:24:44.535Z,2.07
2018-04-30T20:27:19.083Z,2.33
2018-04-30T20:29:47.511Z,3.00
2018-04-30T20:32:21.315Z,2.93
2018-04-30T20:34:49.826Z,3.87
2018-04-30T20:37:24.489Z,4.73
2018-04-30T20:39:53.275Z,2.63
2018-04-30T20:42:25.787Z,2.40
2018-04-30T20:44:55.297Z,1.43
2018-04-30T20:47:28.146Z,0.73
2018-04-30T20:49:56.682Z,1.13
2018-04-30T20:52:30.874Z,2.80
2018-04-30T20:54:59.765Z,3.57
2018-04-30T20:57:35.754Z,1.43
2018-04-30T21:00:04.700Z,3.40
2018-04-30T21:02:36.458Z,2.53
2018-04-30T21:05:05.247Z,2.13
2018-04-30T21:07:39.298Z,2.23
2018-04-30T21:10:08.888Z,1.53
2018-04-30T21:12:42.011Z,5.13
2018-04-30T21:15:10.873Z,9.17
2018-04-30T21:21:19.834Z,1.80
2018-04-30T21:23:49.182Z,2.13
2018-04-30T21:26:17.678Z,1.83
2018-04-30T21:28:48.591Z,1.20
2018-04-30T21:31:17.271Z,0.57
2018-04-30T21:33:51.244Z,0.90
2018-04-30T21:36:21.731Z,1.37
2018-04-30T21:38:54.103Z,0.40
2018-04-30T21:41:23.568Z,2.30
2018-04-30T21:43:57.080Z,0.87
2018-04-30T21:46:25.559Z,0.73
2018-04-30T21:49:07.099Z,0.50
2018-04-30T21:51:37.366Z,2.47
2018-04-30T21:54:07.159Z,0.40
2018-04-30T21:56:36.770Z,0.20
2018-04-30T21:59:06.152Z,1.70
2018-04-30T22:01:35.755Z,0.40
2018-04-30T22:04:09.295Z,0.30
2018-04-30T22:06:38.123Z,0.40
2018-04-30T22:09:10.369Z,0.30
2018-04-30T22:11:39.934Z,0.50
2018-04-30T22:27:23.166Z,0.30
2018-04-30T22:29:52.841Z,0.30
2018-04-30T22:32:22.519Z,0.30
2018-04-30T22:34:52.011Z,0.40
2018-04-30T22:37:21.700Z,0.83
2018-04-30T22:39:50.644Z,0.30
2018-04-30T22:42:25.619Z,0.30
2018-04-30T22:44:54.579Z,0.30
2018-04-30T22:47:26.523Z,0.10
2018-04-30T22:49:54.974Z,1.90
2018-04-30T22:52:31.298Z,0.30
2018-04-30T22:55:01.203Z,0.47
2018-04-30T22:57:34.062Z,0.30
2018-04-30T23:00:03.078Z,0.30
2018-04-30T23:02:35.542Z,0.30
2018-04-30T23:05:05.241Z,1.23
2018-04-30T23:07:38.087Z,0.50
2018-04-30T23:10:07.375Z,0.83
2018-04-30T23:12:40.796Z,2.03
2018-04-30T23:15:11.055Z,1.03
2018-04-30T23:17:42.445Z,0.73
2018-04-30T23:20:12.352Z,0.20
2018-04-30T23:22:44.757Z,1.80
2018-04-30T23:25:13.448Z,0.93
2018-04-30T23:27:48.643Z,0.50
2018-04-30T23:30:18.168Z,0.20
2018-04-30T23:32:49.690Z,0.57
2018-04-30T23:35:18.366Z,0.23
2018-04-30T23:38:01.403Z,0.30
2018-04-30T23:40:29.882Z,0.20
2018-04-30T23:42:58.463Z,0.40
2018-04-30T23:45:27.321Z,0.20
2018-04-30T23:47:59.712Z,0.30
2018-04-30T23:50:28.939Z,0.20
2018-04-30T23:53:00.758Z,0.37
2018-04-30T23:55:30.363Z,0.40
2018-04-30T23:58:03.187Z,0.60
